Terminal Aerodrome Forecast
Issued by NWS Cleveland, OH

Home | Current Version | Previous Version | Graphics & Text | Print | Product List | Glossary Off
Versions: 1 2 3 4 5 6 7 8 9 10 11 12 13 14

000
FTUS41 KCLE 252334
TAFERI
TAF
KERI 252334Z 2600/2624 VRB03KT P6SM BKN250
     FM260400 18007KT P6SM BKN250
     FM261400 18010KT P6SM VCSH SCT025 BKN080
     FM261800 26008KT P6SM BKN050=

USA.gov is the U.S. government's official web portal to all federal, state and local government web resources and services.